Time;durP1;ratioP1;P1;durP2;ratioP2;P2;SDS_P1;SDS_P2;PMS_P1;PMS_P2;Temp;Humidity;BMP_temperature;BMP_pressure;BME280_temperature;BME280_humidity;BME280_pressure;Samples;Min_cycle;Max_cycle;Signal;HPM_P1;HPM_P2
2022/01/10 04:53:55;;;;;;;16.03;12.10;;;3.20;99.90;;;;;;5249867;23;20891;-71
2022/01/10 04:56:22;;;;;;;20.30;12.57;;;3.20;99.90;;;;;;5007838;28;20543;-71
2022/01/10 04:58:51;;;;;;;23.10;13.20;;;3.30;99.90;;;;;;5006717;28;20895;-72
2022/01/10 05:01:18;;;;;;;20.43;12.93;;;3.30;99.90;;;;;;5003120;28;20526;-71
2022/01/10 05:03:45;;;;;;;24.37;14.10;;;3.30;99.90;;;;;;4996128;28;20543;-71
2022/01/10 05:06:12;;;;;;;18.10;11.80;;;3.40;99.90;;;;;;4981778;28;20443;-71
2022/01/10 05:08:39;;;;;;;21.43;13.00;;;3.40;99.90;;;;;;4986394;28;20479;-72
2022/01/10 05:11:07;;;;;;;22.60;13.30;;;3.30;99.90;;;;;;4993169;28;20546;-71
2022/01/10 05:13:35;;;;;;;20.80;14.37;;;3.30;99.90;;;;;;4992604;28;20586;-71
2022/01/10 05:16:02;;;;;;;18.83;12.30;;;3.30;99.90;;;;;;4993381;28;20482;-71
2022/01/10 05:18:30;;;;;;;22.73;12.67;;;3.30;99.90;;;;;;4993127;28;20505;-71
2022/01/10 05:20:58;;;;;;;21.47;13.23;;;3.30;99.90;;;;;;4993121;28;20451;-71
2022/01/10 05:23:25;;;;;;;17.97;12.00;;;3.40;99.90;;;;;;4993053;28;21042;-72
2022/01/10 05:25:52;;;;;;;22.70;13.50;;;3.40;99.90;;;;;;4993067;28;20546;-71
2022/01/10 05:28:21;;;;;;;21.83;12.63;;;3.40;99.90;;;;;;4993227;28;20538;-71
2022/01/10 05:30:49;;;;;;;25.33;12.73;;;3.40;99.90;;;;;;4992668;28;20490;-72
2022/01/10 05:33:19;;;;;;;23.03;12.63;;;3.40;99.90;;;;;;4992964;28;20499;-71
2022/01/10 05:35:46;;;;;;;20.20;12.97;;;3.40;99.90;;;;;;4992942;28;20454;-71
2022/01/10 05:38:14;;;;;;;19.13;12.43;;;3.30;99.90;;;;;;4992799;28;20578;-72
2022/01/10 05:40:42;;;;;;;21.73;13.90;;;3.40;99.90;;;;;;4992397;28;20542;-71
2022/01/10 05:43:09;;;;;;;17.47;11.33;;;3.40;99.90;;;;;;4992804;28;20506;-72
2022/01/10 05:45:37;;;;;;;20.10;13.40;;;3.40;99.90;;;;;;4992880;28;20557;-71
2022/01/10 05:48:11;;;;;;;20.40;12.70;;;3.40;99.90;;;;;;4992810;28;20453;-71
2022/01/10 05:50:41;;;;;;;20.70;11.73;;;3.40;99.90;;;;;;4992769;28;20526;-72
2022/01/10 05:53:08;;;;;;;18.80;12.00;;;3.40;99.90;;;;;;4992410;28;21014;-72
2022/01/10 05:55:36;;;;;;;23.97;14.10;;;3.50;99.90;;;;;;4992784;28;20483;-71
2022/01/10 05:58:03;;;;;;;21.37;11.90;;;3.50;99.90;;;;;;4991957;28;20462;-72
2022/01/10 06:00:31;;;;;;;15.90;12.00;;;3.40;99.90;;;;;;4992233;28;20545;-72
2022/01/10 06:02:59;;;;;;;18.67;12.10;;;3.50;99.90;;;;;;4992419;28;20459;-71
2022/01/10 06:05:30;;;;;;;18.50;11.67;;;3.50;99.90;;;;;;4992362;28;20490;-71
2022/01/10 06:07:57;;;;;;;20.70;13.43;;;3.50;99.90;;;;;;4992329;28;20521;-71
2022/01/10 06:10:25;;;;;;;20.80;12.63;;;3.50;99.90;;;;;;4992106;28;20478;-71
2022/01/10 06:12:51;;;;;;;19.90;13.23;;;3.50;99.90;;;;;;4992335;28;20501;-71
2022/01/10 06:15:18;;;;;;;19.00;12.30;;;3.50;99.90;;;;;;4992312;28;20981;-70
2022/01/10 06:17:46;;;;;;;18.27;12.70;;;3.40;99.90;;;;;;4992519;28;20534;-71
2022/01/10 06:20:14;;;;;;;19.60;12.70;;;3.40;99.90;;;;;;4991931;28;21022;-71
2022/01/10 06:22:42;;;;;;;18.90;13.60;;;3.50;99.90;;;;;;4992191;28;21065;-71
2022/01/10 06:25:11;;;;;;;21.63;12.97;;;3.50;99.90;;;;;;4992099;28;20982;-71
2022/01/10 06:27:38;;;;;;;25.33;14.77;;;3.50;99.90;;;;;;4992153;28;20452;-72
2022/01/10 06:30:07;;;;;;;25.40;13.87;;;3.50;99.90;;;;;;4992239;28;20865;-71
2022/01/10 06:32:34;;;;;;;19.73;13.93;;;3.40;99.90;;;;;;4992203;28;20505;-72
2022/01/10 06:35:01;;;;;;;21.50;13.80;;;3.50;99.90;;;;;;4992290;28;20459;-71
2022/01/10 06:37:29;;;;;;;21.30;13.93;;;3.50;99.90;;;;;;4992163;28;20543;-73
2022/01/10 06:39:56;;;;;;;18.53;12.60;;;3.50;99.90;;;;;;4992045;28;20534;-72
2022/01/10 06:42:23;;;;;;;25.17;12.97;;;3.50;99.90;;;;;;4992332;28;20479;-71
2022/01/10 06:44:50;;;;;;;18.67;12.90;;;3.60;99.90;;;;;;5027479;23;21075;-75
2022/01/10 06:47:17;;;;;;;24.07;13.50;;;3.50;99.90;;;;;;4972017;28;20440;-74
2022/01/10 06:49:44;;;;;;;18.70;12.17;;;3.60;99.90;;;;;;4952991;29;21013;-75
2022/01/10 06:52:11;;;;;;;24.00;13.10;;;3.60;99.90;;;;;;4953266;28;20940;-75
2022/01/10 06:54:39;;;;;;;21.03;11.40;;;3.60;99.90;;;;;;4951714;29;20552;-75
2022/01/10 06:57:06;;;;;;;17.30;11.40;;;3.60;99.90;;;;;;4934288;29;20449;-75
2022/01/10 06:59:33;;;;;;;20.27;12.30;;;3.60;99.90;;;;;;4933905;29;20544;-75
2022/01/10 07:02:00;;;;;;;22.40;13.93;;;3.60;99.90;;;;;;4934064;29;20553;-76
2022/01/10 07:04:28;;;;;;;21.83;13.57;;;3.60;99.90;;;;;;4934388;29;20453;-76
2022/01/10 07:06:57;;;;;;;23.00;13.60;;;3.50;99.90;;;;;;4934181;29;20991;-76
2022/01/10 07:09:24;;;;;;;27.20;16.90;;;3.50;99.90;;;;;;4936334;29;20472;-76
2022/01/10 07:11:52;;;;;;;24.90;16.13;;;3.50;99.90;;;;;;4937707;29;20540;-76
2022/01/10 07:14:19;;;;;;;24.80;16.07;;;3.50;99.90;;;;;;4937182;29;20585;-66
2022/01/10 07:16:48;;;;;;;24.47;15.17;;;3.50;99.90;;;;;;4937485;29;21025;-65
2022/01/10 07:19:15;;;;;;;24.37;14.97;;;3.40;99.90;;;;;;4937411;29;20453;-65
2022/01/10 07:21:43;;;;;;;20.90;13.70;;;3.30;99.90;;;;;;4937652;29;20550;-75
2022/01/10 07:24:10;;;;;;;19.80;12.50;;;3.30;99.90;;;;;;4937449;29;20457;-76
2022/01/10 07:26:37;;;;;;;21.23;12.70;;;3.30;99.90;;;;;;4937226;29;20596;-76
2022/01/10 07:29:08;;;;;;;19.23;12.80;;;3.30;99.90;;;;;;4936966;29;20457;-76
2022/01/10 07:31:35;;;;;;;18.50;12.17;;;3.30;99.90;;;;;;4937731;29;20453;-76
2022/01/10 07:34:02;;;;;;;18.00;11.70;;;3.30;99.90;;;;;;4937106;29;21046;-77
2022/01/10 07:36:29;;;;;;;19.17;12.00;;;3.30;99.90;;;;;;4936942;29;20837;-75
2022/01/10 07:38:56;;;;;;;26.80;12.60;;;3.30;99.90;;;;;;4936930;29;20533;-76
2022/01/10 07:41:23;;;;;;;20.03;11.40;;;3.30;99.90;;;;;;4936836;29;20469;-75
2022/01/10 07:43:51;;;;;;;23.10;11.30;;;3.20;99.90;;;;;;4937165;29;20477;-76
2022/01/10 07:46:20;;;;;;;24.07;12.03;;;3.20;99.90;;;;;;4936874;29;21103;-75
2022/01/10 07:48:47;;;;;;;21.00;10.53;;;3.20;99.90;;;;;;4936890;29;20466;-76
2022/01/10 07:51:14;;;;;;;23.10;11.80;;;3.20;99.90;;;;;;4936778;29;20504;-75
2022/01/10 07:53:43;;;;;;;17.73;11.07;;;3.20;99.90;;;;;;4936709;29;20497;-75
2022/01/10 07:56:10;;;;;;;18.33;11.07;;;3.20;99.90;;;;;;4936407;29;20505;-76
2022/01/10 07:58:37;;;;;;;24.27;12.80;;;3.20;99.90;;;;;;4936695;29;20460;-76
2022/01/10 08:01:04;;;;;;;24.43;11.73;;;3.20;99.90;;;;;;4936257;29;20984;-67
2022/01/10 08:03:33;;;;;;;18.30;11.00;;;3.30;99.90;;;;;;4936608;29;20483;-68
2022/01/10 08:06:00;;;;;;;19.63;11.60;;;3.30;99.90;;;;;;4935688;29;20470;-68
2022/01/10 08:08:28;;;;;;;18.23;11.83;;;3.30;99.90;;;;;;4936418;29;20544;-68
2022/01/10 08:10:54;;;;;;;17.70;11.70;;;3.30;99.90;;;;;;4936423;29;20954;-68
2022/01/10 08:13:23;;;;;;;20.07;12.10;;;3.30;99.90;;;;;;4936566;29;20493;-68
2022/01/10 08:15:50;;;;;;;21.43;12.73;;;3.30;99.90;;;;;;4936460;29;20478;-66
2022/01/10 08:18:18;;;;;;;21.77;12.97;;;3.30;99.90;;;;;;4936579;29;20548;-66
2022/01/10 08:20:46;;;;;;;19.50;11.43;;;3.30;99.90;;;;;;4935476;29;20964;-75
2022/01/10 08:23:13;;;;;;;18.10;12.37;;;3.30;99.90;;;;;;4936317;29;20544;-75
2022/01/10 08:25:40;;;;;;;23.17;12.23;;;3.30;99.90;;;;;;4936363;29;20560;-75
2022/01/10 08:28:07;;;;;;;22.87;13.40;;;3.30;99.90;;;;;;4936544;29;20477;-75
2022/01/10 08:30:35;;;;;;;22.27;11.83;;;3.40;99.90;;;;;;4936333;29;20881;-74
2022/01/10 08:33:02;;;;;;;19.60;13.13;;;3.40;99.90;;;;;;4936139;29;20465;-75
2022/01/10 08:35:28;;;;;;;23.10;12.97;;;3.50;99.90;;;;;;4935971;29;20569;-75
2022/01/10 08:37:57;;;;;;;19.70;11.60;;;3.40;99.90;;;;;;4936202;29;20549;-75
2022/01/10 08:40:24;;;;;;;19.90;12.20;;;3.40;99.90;;;;;;4935632;29;20494;-76
2022/01/10 08:42:51;;;;;;;27.67;11.40;;;3.40;99.90;;;;;;4936227;29;20545;-75
2022/01/10 08:45:18;;;;;;;22.10;12.13;;;3.50;99.90;;;;;;4935905;29;20485;-75
2022/01/10 08:47:46;;;;;;;21.60;12.70;;;3.60;99.90;;;;;;4935888;29;20549;-75
2022/01/10 08:50:14;;;;;;;20.05;13.10;;;3.60;99.90;;;;;;4934649;29;20536;-76
2022/01/10 08:52:41;;;;;;;19.53;11.30;;;3.80;99.90;;;;;;4935776;29;20301;-77
2022/01/10 08:55:11;;;;;;;26.70;11.80;;;3.80;99.90;;;;;;4935779;29;20589;-75
2022/01/10 08:57:38;;;;;;;11.83;8.87;;;3.80;99.90;;;;;;4935654;29;20540;-76
2022/01/10 09:00:07;;;;;;;22.53;11.03;;;3.80;99.90;;;;;;4935724;29;20537;-75
2022/01/10 09:02:34;;;;;;;18.27;10.37;;;3.80;99.90;;;;;;4935750;29;20548;-75
2022/01/10 09:05:01;;;;;;;20.03;8.77;;;3.80;99.90;;;;;;4935418;29;20880;-75
2022/01/10 09:07:28;;;;;;;17.60;10.23;;;3.80;99.90;;;;;;4935749;29;20528;-75
2022/01/10 09:09:54;;;;;;;12.17;7.53;;;3.70;99.90;;;;;;4935247;29;20545;-74
2022/01/10 09:12:23;;;;;;;15.40;9.57;;;3.70;99.90;;;;;;4935519;29;20486;-75
2022/01/10 09:14:50;;;;;;;11.50;8.10;;;3.80;99.90;;;;;;4935333;29;20581;-74
2022/01/10 09:17:17;;;;;;;15.27;8.50;;;3.80;99.90;;;;;;4935214;29;20461;-75
2022/01/10 09:19:44;;;;;;;11.90;7.17;;;3.80;99.90;;;;;;4935166;29;20454;-75
2022/01/10 09:22:11;;;;;;;10.57;7.20;;;3.80;99.90;;;;;;4935433;29;20890;-76
2022/01/10 09:24:38;;;;;;;14.80;7.70;;;3.80;99.90;;;;;;4935275;29;20454;-77
2022/01/10 09:27:05;;;;;;;16.87;9.00;;;3.80;99.90;;;;;;4935234;29;20544;-75
2022/01/10 09:29:34;;;;;;;20.10;9.80;;;3.80;99.90;;;;;;4934962;29;20458;-75
2022/01/10 09:32:00;;;;;;;10.23;7.07;;;3.90;99.90;;;;;;4935632;29;20528;-75
2022/01/10 09:34:27;;;;;;;15.30;9.10;;;3.80;99.90;;;;;;4935091;29;20591;-75
2022/01/10 09:36:54;;;;;;;16.70;7.67;;;3.80;99.90;;;;;;4944518;29;20878;-75
2022/01/10 09:39:21;;;;;;;17.50;8.37;;;3.80;99.90;;;;;;4953488;28;20548;-72
2022/01/10 09:41:49;;;;;;;13.37;8.07;;;3.70;99.90;;;;;;4954374;29;20544;-72
2022/01/10 09:44:17;;;;;;;13.77;7.60;;;3.70;99.90;;;;;;4954068;29;20464;-64
2022/01/10 09:46:47;;;;;;;13.33;8.03;;;3.60;99.90;;;;;;4954083;28;21099;-74
2022/01/10 09:49:15;;;;;;;16.50;9.03;;;3.70;99.90;;;;;;4954223;29;20511;-76
2022/01/10 09:51:42;;;;;;;18.73;9.10;;;3.70;99.90;;;;;;4954409;29;20536;-75
2022/01/10 09:54:09;;;;;;;16.33;7.77;;;3.80;99.90;;;;;;4954154;29;20529;-76
2022/01/10 09:56:36;;;;;;;14.53;8.40;;;3.80;99.90;;;;;;4954176;28;20592;-75
2022/01/10 09:59:03;;;;;;;50.33;37.30;;;3.80;99.90;;;;;;4954179;28;20539;-76
2022/01/10 10:01:31;;;;;;;144.30;97.67;;;3.80;99.90;;;;;;4954271;28;20540;-75
2022/01/10 10:04:00;;;;;;;14.70;9.73;;;3.80;99.90;;;;;;4953971;29;20520;-75
2022/01/10 10:06:30;;;;;;;16.47;8.60;;;3.80;99.90;;;;;;4954152;28;20544;-75
2022/01/10 10:08:59;;;;;;;16.83;8.80;;;3.80;99.90;;;;;;4953715;28;20983;-75
2022/01/10 10:11:37;;;;;;;19.43;8.33;;;3.80;99.90;;;;;;4953897;29;20468;-74
2022/01/10 10:14:05;;;;;;;14.97;8.57;;;3.80;99.90;;;;;;4953919;29;20492;-74
2022/01/10 10:16:36;;;;;;;17.23;8.63;;;3.90;99.90;;;;;;4953619;28;20509;-74
2022/01/10 10:19:05;;;;;;;14.07;8.83;;;4.00;99.90;;;;;;4953976;29;20472;-74
2022/01/10 10:21:34;;;;;;;16.43;8.17;;;4.10;99.90;;;;;;4953783;29;20544;-74
2022/01/10 10:24:04;;;;;;;15.33;10.00;;;4.10;99.90;;;;;;4953536;28;20484;-74
2022/01/10 10:26:31;;;;;;;17.93;9.33;;;4.20;99.90;;;;;;4953428;28;20588;-74
2022/01/10 10:28:58;;;;;;;16.70;9.27;;;4.30;99.90;;;;;;4953529;29;20496;-74
2022/01/10 10:31:27;;;;;;;16.80;8.87;;;4.40;99.90;;;;;;4953472;29;20457;-74
2022/01/10 10:33:55;;;;;;;12.87;7.77;;;4.50;99.90;;;;;;4953232;29;20592;-74
2022/01/10 10:36:26;;;;;;;12.03;7.90;;;4.60;99.90;;;;;;4953163;28;20481;-74
2022/01/10 10:38:55;;;;;;;17.17;7.93;;;4.70;99.90;;;;;;4953233;28;20463;-74
2022/01/10 10:41:23;;;;;;;16.30;8.03;;;4.80;99.90;;;;;;4953585;28;20459;-74
2022/01/10 10:43:51;;;;;;;13.53;6.87;;;4.80;99.90;;;;;;4955263;28;21035;-74
2022/01/10 10:46:20;;;;;;;14.40;7.40;;;4.90;99.90;;;;;;4955233;28;20491;-75
2022/01/10 10:48:52;;;;;;;13.20;7.63;;;5.00;99.90;;;;;;4954183;29;20456;-75
2022/01/10 10:51:19;;;;;;;15.30;7.33;;;5.00;99.90;;;;;;4955127;29;20495;-74
2022/01/10 10:53:47;;;;;;;12.40;7.00;;;5.10;99.90;;;;;;4955279;29;20449;-75
2022/01/10 10:56:15;;;;;;;16.43;9.00;;;5.10;99.90;;;;;;4954858;28;20476;-74
2022/01/10 10:58:42;;;;;;;13.77;8.13;;;5.10;99.90;;;;;;4954915;29;21056;-75
2022/01/10 11:01:09;;;;;;;19.50;9.27;;;5.10;99.90;;;;;;4956093;29;20528;-75
2022/01/10 11:03:36;;;;;;;14.17;7.17;;;5.10;99.90;;;;;;4955759;29;20535;-75
2022/01/10 11:06:05;;;;;;;16.20;8.50;;;5.10;99.90;;;;;;4955895;28;21000;-75
2022/01/10 11:08:35;;;;;;;15.63;8.20;;;5.10;99.90;;;;;;4955927;29;20515;-75
2022/01/10 11:11:04;;;;;;;22.80;10.07;;;5.10;99.90;;;;;;4956210;29;20456;-75
2022/01/10 11:13:32;;;;;;;14.20;8.30;;;5.10;99.90;;;;;;4955893;28;20488;-75
2022/01/10 11:15:59;;;;;;;12.70;8.40;;;5.10;99.90;;;;;;4955733;28;20575;-75
2022/01/10 11:18:27;;;;;;;14.97;8.70;;;5.10;99.90;;;;;;4956320;29;20853;-76
2022/01/10 11:20:57;;;;;;;25.20;11.17;;;5.10;99.90;;;;;;4949564;29;20558;-76
2022/01/10 11:23:24;;;;;;;19.30;10.60;;;5.20;99.90;;;;;;4953183;28;20452;-76
2022/01/10 11:25:51;;;;;;;16.53;10.07;;;5.10;99.90;;;;;;4956106;28;20472;-75
2022/01/10 11:28:24;;;;;;;14.90;8.70;;;5.10;99.90;;;;;;4956560;29;20539;-75
2022/01/10 11:30:53;;;;;;;16.77;9.07;;;5.00;99.90;;;;;;4956178;29;20491;-75
2022/01/10 11:33:22;;;;;;;18.10;10.47;;;4.90;99.90;;;;;;4956566;28;20544;-75
2022/01/10 11:35:52;;;;;;;19.73;9.50;;;5.00;99.90;;;;;;4956177;28;20587;-75
2022/01/10 11:38:22;;;;;;;18.13;11.37;;;5.00;99.90;;;;;;4956222;29;20457;-75
2022/01/10 11:40:50;;;;;;;22.17;12.23;;;5.00;99.90;;;;;;4955996;29;20535;-75
2022/01/10 11:43:38;;;;;;;18.57;10.13;;;5.00;99.90;;;;;;4956379;28;21160;-75
2022/01/10 11:46:13;;;;;;;12.10;7.53;;;5.00;99.90;;;;;;4955221;28;20497;-75
2022/01/10 11:48:46;;;;;;;16.17;9.13;;;5.00;99.90;;;;;;4954853;29;20535;-75
2022/01/10 11:51:18;;;;;;;16.03;9.97;;;5.10;99.90;;;;;;4954878;29;20590;-74
2022/01/10 11:53:47;;;;;;;17.90;8.83;;;5.10;99.90;;;;;;4955001;29;20539;-75
2022/01/10 11:56:26;;;;;;;17.53;9.00;;;5.20;99.90;;;;;;4953891;28;20563;-74
2022/01/10 11:59:16;;;;;;;16.23;9.33;;;5.20;99.90;;;;;;4954601;29;20536;-75
2022/01/10 12:01:45;;;;;;;17.07;8.87;;;5.30;99.90;;;;;;4954798;29;20904;-74
2022/01/10 12:04:13;;;;;;;15.00;8.63;;;5.30;99.90;;;;;;4954922;29;20536;-74
2022/01/10 12:06:40;;;;;;;20.47;10.50;;;5.20;99.90;;;;;;4954639;28;20551;-74
2022/01/10 12:09:07;;;;;;;19.33;9.93;;;5.10;99.90;;;;;;4954524;28;20547;-75
2022/01/10 12:11:36;;;;;;;18.30;10.23;;;5.10;99.90;;;;;;4954522;28;20937;-75
2022/01/10 12:14:05;;;;;;;28.90;16.20;;;5.20;99.90;;;;;;4955134;29;20460;-76
2022/01/10 12:16:35;;;;;;;19.60;12.13;;;5.20;99.90;;;;;;4954784;28;20484;-74
2022/01/10 12:19:03;;;;;;;20.67;12.20;;;5.20;99.90;;;;;;4954144;29;20496;-75
2022/01/10 12:21:31;;;;;;;25.43;11.33;;;5.20;99.90;;;;;;4955438;29;20552;-75
2022/01/10 12:23:58;;;;;;;22.93;11.27;;;5.10;99.90;;;;;;4955146;29;20453;-74
2022/01/10 12:26:26;;;;;;;14.67;8.83;;;5.20;99.90;;;;;;4955189;28;20563;-74
2022/01/10 12:28:55;;;;;;;18.57;10.80;;;5.20;99.90;;;;;;4954975;29;20535;-75
2022/01/10 12:31:25;;;;;;;17.87;9.63;;;5.20;99.90;;;;;;4955260;29;20539;-75
2022/01/10 12:33:54;;;;;;;17.10;9.50;;;5.20;99.90;;;;;;4955266;29;20547;-74
2022/01/10 12:36:23;;;;;;;17.93;9.50;;;5.20;99.90;;;;;;4955053;28;20604;-74
2022/01/10 12:38:51;;;;;;;16.73;10.37;;;5.20;99.90;;;;;;4955032;28;20536;-75
2022/01/10 12:41:20;;;;;;;18.70;8.50;;;5.30;99.90;;;;;;4955045;29;20449;-75
2022/01/10 12:43:48;;;;;;;13.87;9.23;;;5.20;99.90;;;;;;4955055;29;20453;-75
2022/01/10 12:46:16;;;;;;;16.33;8.67;;;5.20;99.90;;;;;;4993729;23;20504;-73
2022/01/10 12:48:46;;;;;;;22.40;9.77;;;5.20;99.90;;;;;;4978203;28;20460;-65
2022/01/10 12:51:15;;;;;;;14.20;9.67;;;5.10;99.90;;;;;;4974076;28;20543;-65
2022/01/10 12:53:47;;;;;;;58.80;44.60;;;5.20;99.90;;;;;;4974124;28;20534;-65
2022/01/10 12:56:15;;;;;;;24.20;11.80;;;5.20;99.90;;;;;;4975956;28;20499;-73
2022/01/10 12:58:42;;;;;;;47.87;29.00;;;5.30;99.90;;;;;;4979745;28;20488;-73
2022/01/10 13:01:18;;;;;;;19.00;10.00;;;5.30;99.90;;;;;;4983617;28;20483;-74
2022/01/10 13:03:50;;;;;;;24.33;12.37;;;5.20;99.90;;;;;;4981770;28;20483;-73
2022/01/10 13:06:21;;;;;;;24.50;10.90;;;5.20;99.90;;;;;;4983169;28;20468;-74
2022/01/10 13:08:48;;;;;;;17.67;10.83;;;5.30;99.90;;;;;;4981881;28;20624;-73
2022/01/10 13:11:17;;;;;;;26.20;11.00;;;5.30;99.90;;;;;;4981955;28;20463;-74
2022/01/10 13:13:45;;;;;;;25.33;10.77;;;5.30;99.90;;;;;;4983779;28;20948;-71
2022/01/10 13:16:28;;;;;;;21.30;12.17;;;5.40;99.90;;;;;;4983181;28;20519;-71
2022/01/10 13:18:57;;;;;;;23.52;14.23;;;5.40;99.90;;;;;;4979416;28;20457;-73
2022/01/10 13:21:32;;;;;;;25.13;14.20;;;5.70;99.90;;;;;;4982624;28;20212;-73
2022/01/10 13:24:20;;;;;;;24.60;13.67;;;5.70;99.90;;;;;;4981620;28;20542;-73
2022/01/10 13:27:03;;;;;;;26.43;13.80;;;5.70;99.90;;;;;;4977532;28;20484;-73
2022/01/10 13:29:39;;;;;;;24.77;15.73;;;5.60;99.90;;;;;;4979641;28;20484;-73
2022/01/10 13:32:28;;;;;;;26.60;13.40;;;5.50;99.90;;;;;;4982900;28;20466;-73
2022/01/10 13:35:10;;;;;;;24.60;12.30;;;5.40;99.90;;;;;;4972281;28;20481;-73
2022/01/10 13:37:41;;;;;;;21.80;12.53;;;5.40;99.90;;;;;;4964075;28;20463;-73
2022/01/10 13:40:11;;;;;;;27.53;13.47;;;5.40;99.90;;;;;;4964144;28;20453;-73
2022/01/10 13:42:41;;;;;;;19.80;13.10;;;5.30;99.90;;;;;;4963882;28;20484;-73
2022/01/10 13:45:10;;;;;;;26.17;13.67;;;5.30;99.90;;;;;;4964700;28;20493;-73
2022/01/10 13:47:58;;;;;;;24.20;12.97;;;5.40;99.90;;;;;;4964976;28;20456;-73
2022/01/10 13:50:28;;;;;;;31.27;13.30;;;5.40;99.90;;;;;;4964305;28;21287;-72
2022/01/10 13:53:08;;;;;;;28.97;14.17;;;5.30;99.90;;;;;;4963955;28;20472;-73
2022/01/10 13:55:37;;;;;;;26.83;14.10;;;5.40;99.90;;;;;;4963158;28;20945;-73
2022/01/10 13:58:07;;;;;;;28.67;14.60;;;5.50;99.90;;;;;;4962664;28;20489;-73
2022/01/10 14:00:37;;;;;;;29.80;13.73;;;5.50;99.90;;;;;;4960900;28;20540;-73
2022/01/10 14:03:05;;;;;;;30.27;15.30;;;5.40;99.90;;;;;;4960799;28;20835;-73
2022/01/10 14:05:33;;;;;;;20.23;13.07;;;5.30;99.90;;;;;;4961100;28;20461;-73
2022/01/10 14:08:01;;;;;;;26.90;13.20;;;5.40;99.90;;;;;;4961244;28;20846;-73
2022/01/10 14:10:30;;;;;;;25.20;14.30;;;5.40;99.90;;;;;;4959033;28;20838;-73
2022/01/10 14:12:58;;;;;;;29.60;18.40;;;5.30;99.90;;;;;;4959221;28;20473;-73
2022/01/10 14:15:26;;;;;;;29.00;15.20;;;5.30;99.90;;;;;;4956471;28;20515;-73
2022/01/10 14:17:54;;;;;;;22.93;13.37;;;5.30;99.90;;;;;;4958447;28;20537;-73
2022/01/10 14:20:22;;;;;;;18.17;13.27;;;5.30;99.90;;;;;;4963173;28;20453;-73
2022/01/10 14:22:50;;;;;;;26.03;14.57;;;5.40;99.90;;;;;;4963261;28;20449;-73
2022/01/10 14:25:19;;;;;;;24.37;13.23;;;5.40;99.90;;;;;;4962907;28;20833;-73
2022/01/10 14:27:48;;;;;;;30.03;13.70;;;5.50;99.90;;;;;;4963627;28;20467;-74
2022/01/10 14:30:17;;;;;;;25.30;12.73;;;5.40;99.90;;;;;;4966909;28;20973;-73
2022/01/10 14:32:44;;;;;;;26.13;14.70;;;5.40;99.90;;;;;;4968635;28;20479;-73
2022/01/10 14:35:11;;;;;;;27.27;11.73;;;5.50;99.90;;;;;;4966337;28;20500;-73
2022/01/10 14:37:38;;;;;;;26.50;13.70;;;5.50;99.90;;;;;;4962433;28;20476;-73
2022/01/10 14:40:07;;;;;;;27.57;13.00;;;5.50;99.90;;;;;;4957307;28;20500;-73
2022/01/10 14:42:35;;;;;;;28.10;15.50;;;5.60;99.90;;;;;;4957859;28;20492;-73
2022/01/10 14:45:04;;;;;;;25.23;14.97;;;5.60;99.90;;;;;;4957464;28;20969;-73
2022/01/10 14:47:31;;;;;;;29.90;17.47;;;5.60;99.90;;;;;;4957425;28;20556;-73
2022/01/10 14:49:58;;;;;;;23.90;12.60;;;5.60;99.90;;;;;;4957308;28;20535;-73
2022/01/10 14:52:25;;;;;;;30.20;14.73;;;5.70;99.90;;;;;;4957341;28;20968;-73
2022/01/10 14:54:52;;;;;;;27.60;13.70;;;5.70;99.90;;;;;;4957004;28;20456;-73
2022/01/10 14:57:19;;;;;;;31.83;14.43;;;5.70;99.90;;;;;;4957251;28;20488;-73
2022/01/10 14:59:46;;;;;;;27.83;14.77;;;5.70;99.90;;;;;;4957123;28;20488;-73
2022/01/10 15:02:14;;;;;;;28.50;14.93;;;5.70;99.90;;;;;;4957078;28;20535;-73
2022/01/10 15:04:41;;;;;;;23.73;13.47;;;5.60;99.90;;;;;;4957074;28;20548;-73
2022/01/10 15:07:08;;;;;;;32.00;15.70;;;5.60;99.90;;;;;;4956731;28;20551;-73
2022/01/10 15:09:35;;;;;;;22.80;14.10;;;5.60;99.90;;;;;;4956919;28;20461;-73
2022/01/10 15:12:02;;;;;;;26.53;14.93;;;5.50;99.90;;;;;;4956841;28;20879;-73
2022/01/10 15:14:29;;;;;;;31.60;16.10;;;5.60;99.90;;;;;;4956863;28;20547;-73
2022/01/10 15:16:56;;;;;;;27.70;16.27;;;5.50;99.90;;;;;;4956764;28;20555;-73
2022/01/10 15:19:25;;;;;;;21.67;14.33;;;5.50;99.90;;;;;;4956352;28;20492;-73
2022/01/10 15:21:52;;;;;;;25.90;14.77;;;5.50;99.90;;;;;;4956332;28;20491;-73
2022/01/10 15:24:19;;;;;;;30.93;13.43;;;5.40;99.90;;;;;;4956426;28;21016;-73
2022/01/10 15:26:46;;;;;;;22.00;14.50;;;5.30;99.90;;;;;;4956374;28;20484;-73
2022/01/10 15:29:13;;;;;;;22.40;12.90;;;5.20;99.90;;;;;;4956197;28;20547;-73
2022/01/10 15:31:40;;;;;;;26.77;14.83;;;5.10;99.90;;;;;;4956593;28;20463;-73
2022/01/10 15:34:08;;;;;;;29.47;14.80;;;5.10;99.90;;;;;;4956066;28;20543;-73
2022/01/10 15:36:36;;;;;;;27.03;17.47;;;5.00;99.90;;;;;;4956462;28;20893;-73
2022/01/10 15:39:04;;;;;;;35.53;18.73;;;5.00;99.90;;;;;;4956212;28;20531;-73
2022/01/10 15:41:31;;;;;;;34.50;18.30;;;4.90;99.90;;;;;;4956300;28;20556;-73
2022/01/10 15:43:59;;;;;;;40.23;18.70;;;5.00;99.90;;;;;;4956349;28;20528;-73
2022/01/10 15:46:27;;;;;;;42.90;17.20;;;5.00;99.90;;;;;;4956233;28;20535;-73
2022/01/10 15:48:55;;;;;;;40.37;19.20;;;5.00;99.90;;;;;;4955930;28;20531;-73
2022/01/10 15:51:22;;;;;;;34.50;17.87;;;4.90;99.90;;;;;;4956451;28;20453;-73
2022/01/10 15:53:51;;;;;;;38.80;20.60;;;5.00;99.90;;;;;;4955982;28;20543;-74
2022/01/10 15:56:18;;;;;;;47.93;21.63;;;5.00;99.90;;;;;;4955897;28;20617;-74
2022/01/10 15:58:44;;;;;;;44.27;22.63;;;4.90;99.90;;;;;;4955917;28;20552;-74
2022/01/10 16:01:13;;;;;;;42.27;23.90;;;4.80;99.90;;;;;;4955701;28;20540;-73
2022/01/10 16:03:39;;;;;;;40.67;21.17;;;4.80;99.90;;;;;;4955904;28;21110;-66
2022/01/10 16:06:07;;;;;;;34.27;19.03;;;4.80;99.90;;;;;;4955656;28;20557;-74
2022/01/10 16:08:38;;;;;;;41.70;21.87;;;4.80;99.90;;;;;;4955672;28;21039;-74
2022/01/10 16:11:07;;;;;;;43.50;22.40;;;4.80;99.90;;;;;;4956071;28;20937;-74
2022/01/10 16:13:35;;;;;;;35.23;20.90;;;4.80;99.90;;;;;;4955950;28;20449;-74
2022/01/10 16:16:02;;;;;;;32.57;20.13;;;4.80;99.90;;;;;;4955398;28;20591;-73
2022/01/10 16:18:29;;;;;;;41.03;20.43;;;4.90;99.90;;;;;;4956566;28;20496;-73
2022/01/10 16:20:56;;;;;;;35.30;18.50;;;4.80;99.90;;;;;;4955837;28;20535;-73
2022/01/10 16:23:24;;;;;;;41.07;20.60;;;4.80;99.90;;;;;;4955353;28;20894;-73
2022/01/10 16:25:52;;;;;;;36.43;19.97;;;4.80;99.90;;;;;;4955430;28;20532;-73
2022/01/10 16:28:21;;;;;;;38.53;20.80;;;4.80;99.90;;;;;;4955352;28;20543;-74
2022/01/10 16:30:48;;;;;;;41.60;21.80;;;4.80;99.90;;;;;;4955031;28;20551;-74
2022/01/10 16:33:15;;;;;;;38.10;21.33;;;4.80;99.90;;;;;;4954901;28;20548;-74
2022/01/10 16:35:42;;;;;;;38.03;19.63;;;4.70;99.90;;;;;;4955132;29;20959;-74
2022/01/10 16:38:09;;;;;;;44.30;23.07;;;4.70;99.90;;;;;;4955347;28;20539;-74
2022/01/10 16:40:36;;;;;;;39.70;22.87;;;4.70;99.90;;;;;;4954466;28;20536;-76
2022/01/10 16:43:03;;;;;;;46.80;22.90;;;4.60;99.90;;;;;;4955277;28;20489;-74
2022/01/10 16:45:31;;;;;;;46.17;21.43;;;4.60;99.90;;;;;;4954886;28;20512;-74
2022/01/10 16:47:58;;;;;;;51.60;23.20;;;4.60;99.90;;;;;;4955013;28;20489;-74
2022/01/10 16:50:25;;;;;;;40.47;22.10;;;4.60;99.90;;;;;;4954871;28;20480;-74
2022/01/10 16:52:52;;;;;;;39.17;20.80;;;4.50;99.90;;;;;;4954960;28;20477;-74
2022/01/10 16:55:19;;;;;;;49.73;21.53;;;4.60;99.90;;;;;;4954816;28;20861;-74
2022/01/10 16:57:46;;;;;;;37.30;20.70;;;4.50;99.90;;;;;;4954927;28;20584;-73
2022/01/10 17:00:14;;;;;;;42.30;19.40;;;4.50;99.90;;;;;;4956255;28;20535;-73
2022/01/10 17:02:42;;;;;;;31.03;17.57;;;4.50;99.90;;;;;;4956660;28;20488;-73
2022/01/10 17:05:10;;;;;;;31.23;16.43;;;4.40;99.90;;;;;;4957179;28;21056;-71
2022/01/10 17:07:39;;;;;;;36.97;16.03;;;4.40;99.90;;;;;;4957130;28;20933;-74
2022/01/10 17:10:11;;;;;;;31.73;16.97;;;4.40;99.90;;;;;;4957759;28;20520;-73
2022/01/10 17:12:38;;;;;;;37.77;17.53;;;4.40;99.90;;;;;;4959921;28;20457;-74
2022/01/10 17:15:07;;;;;;;31.23;17.40;;;4.30;99.90;;;;;;4959281;28;20467;-73
2022/01/10 17:17:34;;;;;;;37.60;17.80;;;4.30;99.90;;;;;;4959734;28;20492;-73
2022/01/10 17:20:02;;;;;;;36.27;17.53;;;4.20;99.90;;;;;;4959350;28;20516;-73
2022/01/10 17:22:29;;;;;;;33.60;15.93;;;4.10;99.90;;;;;;4959023;28;20492;-73
2022/01/10 17:24:58;;;;;;;33.83;17.37;;;4.10;99.90;;;;;;4959711;28;20551;-73
2022/01/10 17:27:24;;;;;;;28.57;16.77;;;4.10;99.90;;;;;;4958896;28;20488;-73
2022/01/10 17:29:51;;;;;;;28.57;16.57;;;4.10;99.90;;;;;;4958783;28;20491;-73
2022/01/10 17:32:18;;;;;;;41.83;18.93;;;4.10;99.90;;;;;;4957996;28;20953;-73
2022/01/10 17:34:45;;;;;;;36.80;19.33;;;4.10;99.90;;;;;;4957527;28;20483;-73
2022/01/10 17:37:14;;;;;;;37.57;20.40;;;4.00;99.90;;;;;;4957507;28;20532;-73